Time;durP1;ratioP1;P1;durP2;ratioP2;P2;SDS_P1;SDS_P2;PMS_P1;PMS_P2;Temp;Humidity;BMP_temperature;BMP_pressure;BME280_temperature;BME280_humidity;BME280_pressure;Samples;Min_cycle;Max_cycle;Signal;HPM_P1;HPM_P2
2022/05/15 00:01:27;;;;;;;0.40;0.40;;;20.20;99.90;;;;;;6196322;23;20191;-92
2022/05/15 00:04:00;;;;;;;1.50;0.60;;;19.80;99.90;;;;;;6192742;23;20177;-92
2022/05/15 00:06:33;;;;;;;0.37;0.37;;;20.10;99.90;;;;;;6193459;23;20177;-93
2022/05/15 00:09:06;;;;;;;0.73;0.33;;;20.00;99.90;;;;;;6200875;23;20199;-92
2022/05/15 00:11:47;;;;;;;0.60;0.50;;;20.10;99.90;;;;;;6212550;23;20187;-92
2022/05/15 00:19:30;;;;;;;0.47;0.30;;;20.20;99.90;;;;;;6200904;23;20187;-93
2022/05/15 00:22:01;;;;;;;1.13;0.40;;;20.20;99.90;;;;;;6197425;23;20188;-92
2022/05/15 00:24:33;;;;;;;1.87;0.30;;;20.30;99.90;;;;;;6169217;23;20231;-94
2022/05/15 00:27:06;;;;;;;1.43;0.33;;;20.40;99.90;;;;;;6195221;23;20181;-93
2022/05/15 00:29:39;;;;;;;0.30;0.30;;;20.50;99.90;;;;;;6193479;23;20177;-93
2022/05/15 00:32:12;;;;;;;0.40;0.30;;;20.60;99.90;;;;;;6194052;23;20256;-93
2022/05/15 00:34:46;;;;;;;2.10;0.40;;;20.50;99.90;;;;;;6193095;23;20232;-93
2022/05/15 00:37:17;;;;;;;1.67;0.30;;;20.30;99.90;;;;;;6174803;23;20220;-94
2022/05/15 00:39:48;;;;;;;0.50;0.30;;;20.40;99.90;;;;;;6199564;23;20208;-94
2022/05/15 00:42:20;;;;;;;2.30;0.47;;;20.50;99.90;;;;;;6206389;23;20241;-94
2022/05/15 00:52:58;;;;;;;1.30;0.50;;;19.70;99.90;;;;;;6204798;23;20227;-91
2022/05/15 00:55:46;;;;;;;0.97;0.43;;;19.60;99.90;;;;;;6207661;23;20196;-91
2022/05/15 00:58:24;;;;;;;0.30;0.27;;;20.00;99.90;;;;;;6203327;23;20261;-94
2022/05/15 01:00:56;;;;;;;2.27;0.40;;;20.50;99.90;;;;;;6202890;23;20184;-94
2022/05/15 01:03:28;;;;;;;0.20;0.20;;;20.80;99.90;;;;;;6201518;23;20193;-93
2022/05/15 01:05:59;;;;;;;1.00;0.30;;;20.90;99.90;;;;;;6200718;23;20240;-94
2022/05/15 01:08:32;;;;;;;1.83;0.40;;;21.10;99.90;;;;;;6201049;23;20177;-95
2022/05/15 01:11:10;;;;;;;3.40;0.40;;;21.50;99.90;;;;;;6175957;23;20189;-94
2022/05/15 01:13:44;;;;;;;0.30;0.30;;;21.60;99.90;;;;;;6201324;23;20204;-93
2022/05/15 01:16:20;;;;;;;1.63;0.23;;;21.80;99.90;;;;;;6197396;23;20584;-94
2022/05/15 01:18:56;;;;;;;2.03;0.30;;;21.80;99.90;;;;;;6194290;23;20205;-94
2022/05/15 01:21:35;;;;;;;0.90;0.30;;;21.70;99.90;;;;;;6204439;23;20183;-93
2022/05/15 01:24:11;;;;;;;0.77;0.30;;;21.30;99.90;;;;;;6207778;23;20192;-93
2022/05/15 01:26:45;;;;;;;0.63;0.30;;;21.30;99.90;;;;;;6202010;23;20596;-92
2022/05/15 01:29:16;;;;;;;1.40;0.60;;;21.40;99.90;;;;;;6192114;23;20202;-93
2022/05/15 01:31:52;;;;;;;2.27;0.40;;;21.50;99.90;;;;;;6191797;23;20173;-91
2022/05/15 01:34:23;;;;;;;0.50;0.30;;;21.10;99.90;;;;;;6190509;23;20540;-91
2022/05/15 01:36:57;;;;;;;1.63;0.40;;;21.00;99.90;;;;;;6191601;23;20180;-94
2022/05/15 01:39:29;;;;;;;0.67;0.30;;;20.70;99.90;;;;;;6191296;23;20188;-92
2022/05/15 01:42:01;;;;;;;0.97;0.40;;;21.20;99.90;;;;;;6180832;23;20179;-94
2022/05/15 01:44:34;;;;;;;1.50;0.40;;;21.50;99.90;;;;;;6208336;23;20197;-94
2022/05/15 01:47:06;;;;;;;0.40;0.40;;;21.30;99.90;;;;;;6202095;23;20221;-94
2022/05/15 01:49:39;;;;;;;1.43;0.50;;;21.30;99.90;;;;;;6190839;23;20217;-93
2022/05/15 01:52:16;;;;;;;0.67;0.40;;;21.30;99.90;;;;;;6194948;23;20228;-93
2022/05/15 01:54:47;;;;;;;2.33;0.60;;;21.30;99.90;;;;;;6167229;23;20221;-93
2022/05/15 01:57:21;;;;;;;0.60;0.40;;;20.00;99.90;;;;;;6191142;23;20204;-92
2022/05/15 01:59:53;;;;;;;0.60;0.37;;;19.80;99.90;;;;;;6192435;23;20177;-91
2022/05/15 02:02:24;;;;;;;0.93;0.40;;;19.70;99.90;;;;;;6166274;23;20227;-91
2022/05/15 02:04:55;;;;;;;0.97;0.30;;;19.20;99.90;;;;;;6190829;23;20196;-91
2022/05/15 02:07:28;;;;;;;0.73;0.33;;;19.00;99.90;;;;;;6190663;23;20184;-95
2022/05/15 02:10:01;;;;;;;2.80;0.50;;;18.70;99.90;;;;;;6192211;23;20223;-91
2022/05/15 02:12:32;;;;;;;0.90;0.50;;;18.20;99.90;;;;;;6192672;23;20173;-92
2022/05/15 02:15:05;;;;;;;1.13;0.77;;;18.10;99.90;;;;;;6190918;23;20200;-91
2022/05/15 02:17:37;;;;;;;0.90;0.60;;;17.70;99.90;;;;;;6205348;23;20178;-91
2022/05/15 02:20:14;;;;;;;0.70;0.63;;;17.50;99.90;;;;;;6203143;23;20188;-91
2022/05/15 02:22:51;;;;;;;2.20;0.50;;;17.10;99.90;;;;;;6200440;23;20192;-91
2022/05/15 02:25:23;;;;;;;0.60;0.40;;;16.90;99.90;;;;;;6204209;23;20184;-91
2022/05/15 02:27:58;;;;;;;1.53;0.40;;;17.00;99.90;;;;;;6205196;23;20173;-91
2022/05/15 02:30:31;;;;;;;0.50;0.40;;;16.80;99.90;;;;;;6201440;23;20181;-91
2022/05/15 02:33:02;;;;;;;0.90;0.40;;;16.90;99.90;;;;;;6205092;23;20177;-91
2022/05/15 02:46:42;;;;;;;0.40;0.30;;;16.20;99.90;;;;;;6211829;23;20164;-89
2022/05/15 02:52:03;;;;;;;1.13;0.40;;;16.10;99.90;;;;;;6207266;23;20166;-91
2022/05/15 02:54:35;;;;;;;0.73;0.40;;;16.10;99.90;;;;;;6209238;23;20185;-93
2022/05/15 02:57:10;;;;;;;1.33;0.50;;;16.10;99.90;;;;;;6211551;23;20176;-92
2022/05/15 03:02:11;;;;;;;0.40;0.40;;;16.10;99.90;;;;;;6138972;23;20229;-92
2022/05/15 03:10:10;;;;;;;0.50;0.47;;;15.90;99.90;;;;;;6116515;23;20610;-91
2022/05/15 03:15:20;;;;;;;1.53;0.40;;;15.80;99.90;;;;;;6114318;23;20237;-92
2022/05/15 03:23:25;;;;;;;0.50;0.40;;;15.40;99.90;;;;;;6145651;23;20273;-92
2022/05/15 03:25:56;;;;;;;0.83;0.50;;;15.40;99.90;;;;;;6153545;23;20174;-92
2022/05/15 03:31:03;;;;;;;0.67;0.50;;;15.30;99.90;;;;;;6148335;23;20237;-91
2022/05/15 03:33:40;;;;;;;0.70;0.60;;;15.20;99.90;;;;;;6148140;23;20182;-90
2022/05/15 03:36:12;;;;;;;2.57;0.60;;;15.10;99.90;;;;;;6147143;23;20250;-90
2022/05/15 03:38:48;;;;;;;0.80;0.60;;;15.00;99.90;;;;;;6140108;23;20175;-91
2022/05/15 03:41:22;;;;;;;0.80;0.50;;;15.00;99.90;;;;;;6146455;23;20178;-91
2022/05/15 03:43:58;;;;;;;1.93;0.50;;;14.90;99.90;;;;;;6143273;23;20210;-91
2022/05/15 03:46:29;;;;;;;0.90;0.60;;;14.90;99.90;;;;;;6146338;23;20177;-91
2022/05/15 03:49:13;;;;;;;1.60;0.80;;;14.90;99.90;;;;;;6136483;23;20498;-92
2022/05/15 03:51:47;;;;;;;0.73;0.73;;;14.80;99.90;;;;;;6146708;23;20185;-92
2022/05/15 03:54:18;;;;;;;2.33;1.33;;;14.70;99.90;;;;;;6148045;23;20171;-92
2022/05/15 03:56:54;;;;;;;1.07;0.97;;;14.70;99.90;;;;;;6122622;23;20297;-92
2022/05/15 03:59:28;;;;;;;3.43;1.37;;;14.70;99.90;;;;;;6147636;23;20178;-92
2022/05/15 04:07:24;;;;;;;2.27;1.33;;;14.60;99.90;;;;;;6153136;23;20192;-92
2022/05/15 04:09:58;;;;;;;2.77;1.40;;;14.60;99.90;;;;;;6151496;23;20210;-91
2022/05/15 04:12:29;;;;;;;3.00;1.00;;;14.60;99.90;;;;;;6150538;23;20154;-92
2022/05/15 04:18:20;;;;;;;1.47;1.07;;;14.60;99.90;;;;;;6157876;23;20197;-91
2022/05/15 04:20:55;;;;;;;1.40;1.20;;;14.60;99.90;;;;;;6209096;23;20169;-91
2022/05/15 04:23:31;;;;;;;2.33;1.77;;;14.60;99.90;;;;;;6196447;23;20208;-91
2022/05/15 04:26:11;;;;;;;1.70;1.03;;;14.50;99.90;;;;;;6208458;23;20169;-92
2022/05/15 04:28:43;;;;;;;4.03;1.00;;;14.50;99.90;;;;;;6198507;23;20177;-91
2022/05/15 04:31:14;;;;;;;2.43;0.90;;;14.40;99.90;;;;;;6198506;23;20181;-92
2022/05/15 04:33:46;;;;;;;2.13;1.00;;;14.50;99.90;;;;;;6195491;23;20180;-91
2022/05/15 04:36:19;;;;;;;1.83;1.27;;;14.50;99.90;;;;;;6205895;23;20189;-92
2022/05/15 04:38:53;;;;;;;2.80;0.90;;;14.50;99.90;;;;;;6199919;23;20200;-92
2022/05/15 04:41:24;;;;;;;2.30;1.00;;;14.40;99.90;;;;;;6192909;23;20184;-92
2022/05/15 04:43:56;;;;;;;1.93;1.20;;;14.40;99.90;;;;;;6194275;23;20200;-92
2022/05/15 04:46:29;;;;;;;2.20;1.20;;;14.40;99.90;;;;;;6173955;23;20177;-91
2022/05/15 04:49:01;;;;;;;1.77;0.80;;;14.40;99.90;;;;;;6200240;23;20240;-92
2022/05/15 04:51:34;;;;;;;1.03;0.53;;;14.40;99.90;;;;;;6194686;23;20495;-91
2022/05/15 04:54:08;;;;;;;2.03;0.83;;;14.40;99.90;;;;;;6202273;23;20219;-91
2022/05/15 04:56:41;;;;;;;3.37;1.10;;;14.40;99.90;;;;;;6202872;23;20234;-92
2022/05/15 04:59:12;;;;;;;1.90;0.80;;;14.40;99.90;;;;;;6203132;23;20181;-91
2022/05/15 05:01:43;;;;;;;1.73;1.13;;;14.30;99.90;;;;;;6202949;23;20179;-92
2022/05/15 05:04:15;;;;;;;2.00;0.53;;;14.30;99.90;;;;;;6197661;23;20198;-91
2022/05/15 05:06:47;;;;;;;1.43;0.73;;;14.20;99.90;;;;;;6184935;23;20211;-91
2022/05/15 05:09:22;;;;;;;1.20;0.60;;;14.20;99.90;;;;;;6207677;23;20184;-92
2022/05/15 05:11:56;;;;;;;1.10;0.73;;;14.20;99.90;;;;;;6143432;23;20204;-91
2022/05/15 05:14:27;;;;;;;1.57;1.27;;;14.20;99.90;;;;;;6190996;23;20185;-91
2022/05/15 05:16:59;;;;;;;2.80;1.57;;;14.30;99.90;;;;;;6167860;23;20201;-93
2022/05/15 05:19:31;;;;;;;2.37;1.50;;;14.20;99.90;;;;;;6140457;23;20228;-92
2022/05/15 05:22:03;;;;;;;1.90;1.40;;;14.10;99.90;;;;;;6190679;23;20173;-92
2022/05/15 05:24:37;;;;;;;2.20;1.60;;;14.10;99.90;;;;;;6190374;23;20695;-92
2022/05/15 05:27:09;;;;;;;2.10;1.40;;;14.00;99.90;;;;;;6189027;23;20207;-92
2022/05/15 05:29:41;;;;;;;3.30;0.90;;;14.10;99.90;;;;;;6163777;23;20239;-92
2022/05/15 05:32:13;;;;;;;1.40;0.83;;;14.10;99.90;;;;;;6190341;23;20169;-91
2022/05/15 05:34:44;;;;;;;1.63;0.90;;;14.10;99.90;;;;;;6189975;23;20650;-92
2022/05/15 05:37:17;;;;;;;2.63;1.90;;;14.10;99.90;;;;;;6192971;23;20205;-92
2022/05/15 05:39:50;;;;;;;2.30;1.60;;;14.10;99.90;;;;;;6190317;23;20624;-92
2022/05/15 05:42:22;;;;;;;2.73;1.20;;;14.00;99.90;;;;;;6190085;23;20177;-92
2022/05/15 05:44:54;;;;;;;2.00;1.50;;;14.00;99.90;;;;;;6189862;23;20212;-92
2022/05/15 05:47:26;;;;;;;1.73;1.20;;;13.90;99.90;;;;;;6164330;23;20169;-93
2022/05/15 05:49:58;;;;;;;4.00;1.33;;;13.90;99.90;;;;;;6190097;23;20220;-92
2022/05/15 05:52:29;;;;;;;1.90;1.40;;;13.90;99.90;;;;;;6190093;23;20176;-92
2022/05/15 05:55:03;;;;;;;1.47;1.10;;;13.90;99.90;;;;;;6164484;23;20643;-92
2022/05/15 05:57:34;;;;;;;1.03;0.63;;;13.90;99.90;;;;;;6190127;23;20189;-92
2022/05/15 06:00:06;;;;;;;1.13;0.70;;;13.90;99.90;;;;;;6190182;23;20184;-92
2022/05/15 06:02:38;;;;;;;1.03;0.93;;;13.90;99.90;;;;;;6190246;23;20176;-92
2022/05/15 06:05:08;;;;;;;0.63;0.50;;;13.90;99.90;;;;;;6190158;23;20204;-92
2022/05/15 06:07:40;;;;;;;0.80;0.60;;;13.90;99.90;;;;;;6163504;23;20485;-92
2022/05/15 06:10:15;;;;;;;0.70;0.53;;;13.90;99.90;;;;;;6195975;23;20164;-92
2022/05/15 06:12:47;;;;;;;1.37;0.60;;;13.90;99.90;;;;;;6196570;23;20263;-92
2022/05/15 06:15:20;;;;;;;0.70;0.50;;;13.90;99.90;;;;;;6197293;23;20169;-92
2022/05/15 06:17:52;;;;;;;0.80;0.37;;;14.00;99.90;;;;;;6192066;23;20205;-92
2022/05/15 06:20:23;;;;;;;0.60;0.50;;;13.90;99.90;;;;;;6206116;23;20176;-92
2022/05/15 06:22:54;;;;;;;1.07;0.60;;;13.90;99.90;;;;;;6205818;23;20200;-93
2022/05/15 06:25:28;;;;;;;1.27;0.63;;;13.90;99.90;;;;;;6209393;23;20173;-91
2022/05/15 06:28:01;;;;;;;1.30;0.60;;;13.90;99.90;;;;;;6198726;23;20184;-91
2022/05/15 06:30:32;;;;;;;4.40;0.70;;;13.90;99.90;;;;;;6179942;23;20169;-91
2022/05/15 06:33:03;;;;;;;2.23;0.50;;;13.80;99.90;;;;;;6203668;23;20183;-92
2022/05/15 06:35:37;;;;;;;1.03;0.80;;;13.80;99.90;;;;;;6195187;23;20177;-92
2022/05/15 06:38:09;;;;;;;0.60;0.60;;;13.80;99.90;;;;;;6200350;23;20200;-92
2022/05/15 06:40:55;;;;;;;1.30;0.60;;;13.70;99.90;;;;;;6204147;23;20196;-92
2022/05/15 06:43:26;;;;;;;0.90;0.70;;;13.70;99.90;;;;;;6199060;23;20191;-91
2022/05/15 06:45:57;;;;;;;0.70;0.43;;;13.70;99.90;;;;;;6199166;23;20188;-92
2022/05/15 06:48:29;;;;;;;2.17;0.60;;;13.60;99.90;;;;;;6197058;23;20185;-92
2022/05/15 06:51:02;;;;;;;2.30;1.10;;;13.60;99.90;;;;;;6194041;23;20177;-92
2022/05/15 06:53:35;;;;;;;1.47;1.00;;;13.60;99.90;;;;;;6144677;23;20165;-92
2022/05/15 06:58:55;;;;;;;2.20;0.70;;;13.50;99.90;;;;;;6193348;23;20236;-91
2022/05/15 07:01:31;;;;;;;1.77;0.83;;;13.40;99.90;;;;;;6194114;23;20176;-91
2022/05/15 07:04:03;;;;;;;2.47;0.70;;;13.40;99.90;;;;;;6192003;23;20480;-91
2022/05/15 07:06:35;;;;;;;2.30;0.60;;;13.40;99.90;;;;;;6191629;23;20228;-91
2022/05/15 07:09:06;;;;;;;1.37;0.70;;;13.40;99.90;;;;;;6191011;23;20177;-91
2022/05/15 07:11:40;;;;;;;2.17;0.77;;;13.40;99.90;;;;;;6192200;23;20181;-91
2022/05/15 07:14:11;;;;;;;2.27;0.80;;;13.40;99.90;;;;;;6190935;23;20184;-91
2022/05/15 07:16:42;;;;;;;2.63;0.80;;;13.30;99.90;;;;;;6191575;23;20220;-91
2022/05/15 07:19:14;;;;;;;2.80;0.90;;;13.30;99.90;;;;;;6191471;23;20177;-91
2022/05/15 07:21:45;;;;;;;1.73;0.80;;;13.30;99.90;;;;;;6166001;23;20201;-91
2022/05/15 07:24:19;;;;;;;2.13;0.67;;;13.20;99.90;;;;;;6191993;23;20185;-91
2022/05/15 07:26:52;;;;;;;1.90;0.60;;;13.20;99.90;;;;;;6192711;23;20169;-91
2022/05/15 07:29:24;;;;;;;1.13;0.60;;;13.20;99.90;;;;;;6191301;23;20177;-90
2022/05/15 07:31:58;;;;;;;1.50;0.97;;;13.20;99.90;;;;;;6192058;23;20176;-91
2022/05/15 07:34:30;;;;;;;2.23;0.80;;;13.20;99.90;;;;;;6191930;23;20247;-91
2022/05/15 07:37:02;;;;;;;2.03;0.70;;;13.20;99.90;;;;;;6191669;23;20293;-91
2022/05/15 07:39:33;;;;;;;1.97;0.90;;;13.10;99.90;;;;;;6191105;23;20177;-91
2022/05/15 07:42:08;;;;;;;0.80;0.70;;;13.20;99.90;;;;;;6190943;23;20177;-91
2022/05/15 07:44:40;;;;;;;1.30;0.80;;;13.10;99.90;;;;;;6191729;23;20187;-91
2022/05/15 07:47:11;;;;;;;0.90;0.67;;;13.10;99.90;;;;;;6191622;23;20196;-90
2022/05/15 07:49:46;;;;;;;1.47;0.77;;;13.00;99.90;;;;;;6191306;23;20177;-91
2022/05/15 07:52:18;;;;;;;1.10;0.70;;;13.00;99.90;;;;;;6193766;23;20193;-91
2022/05/15 07:54:49;;;;;;;1.73;0.60;;;13.00;99.90;;;;;;6169333;23;20250;-92
2022/05/15 07:57:22;;;;;;;2.87;0.80;;;13.00;99.90;;;;;;6186539;23;20275;-92
2022/05/15 07:59:54;;;;;;;1.47;0.90;;;13.10;99.90;;;;;;6211929;23;20157;-92
2022/05/15 08:02:25;;;;;;;2.30;0.90;;;13.10;99.90;;;;;;6212260;23;20165;-91
2022/05/15 08:08:02;;;;;;;2.27;0.87;;;13.20;99.90;;;;;;6211746;23;20197;-92
2022/05/15 08:10:36;;;;;;;2.43;0.87;;;13.10;99.90;;;;;;6171151;23;20216;-92
2022/05/15 08:13:12;;;;;;;1.50;0.80;;;13.10;99.90;;;;;;6212424;23;20165;-92
2022/05/15 08:15:44;;;;;;;4.27;0.97;;;13.10;99.90;;;;;;6211297;23;20181;-92
2022/05/15 08:23:55;;;;;;;3.73;2.50;;;12.90;99.90;;;;;;6206949;23;20189;-92
2022/05/15 08:26:28;;;;;;;5.47;2.70;;;12.80;99.90;;;;;;6207598;23;20177;-91
2022/05/15 08:29:02;;;;;;;3.10;2.30;;;12.70;99.90;;;;;;6208106;23;20184;-91
2022/05/15 08:31:34;;;;;;;3.80;3.27;;;12.70;99.90;;;;;;6209790;23;20217;-91
2022/05/15 08:34:05;;;;;;;4.90;3.73;;;12.80;99.90;;;;;;6211571;23;20248;-90
2022/05/15 08:36:36;;;;;;;3.87;3.47;;;12.80;99.90;;;;;;6211770;23;20183;-92
2022/05/15 08:39:08;;;;;;;3.63;2.40;;;12.80;99.90;;;;;;6210763;23;20216;-91
2022/05/15 08:41:48;;;;;;;3.00;1.50;;;12.80;99.90;;;;;;6211520;23;20192;-91
2022/05/15 08:44:27;;;;;;;2.20;1.20;;;12.80;99.90;;;;;;6208324;23;20165;-91
2022/05/15 08:47:23;;;;;;;1.27;1.00;;;12.90;99.90;;;;;;6206078;23;20173;-90
2022/05/15 08:49:59;;;;;;;1.90;1.43;;;12.90;99.90;;;;;;6204847;23;20177;-91
2022/05/15 08:52:38;;;;;;;2.97;1.80;;;12.80;99.90;;;;;;6204690;23;20227;-91
2022/05/15 08:55:16;;;;;;;3.40;1.43;;;12.90;99.90;;;;;;6194300;23;20235;-91
2022/05/15 08:57:53;;;;;;;3.20;1.80;;;12.70;99.90;;;;;;6194839;23;20212;-91
2022/05/15 09:00:30;;;;;;;2.67;1.60;;;12.70;99.90;;;;;;6192780;23;20181;-91
2022/05/15 09:03:16;;;;;;;2.83;1.50;;;12.60;99.90;;;;;;6194839;23;20239;-91
2022/05/15 09:05:54;;;;;;;3.17;1.10;;;12.50;99.90;;;;;;6195506;23;20161;-91
2022/05/15 09:08:59;;;;;;;2.60;1.20;;;12.50;99.90;;;;;;6192876;23;20185;-91
2022/05/15 09:11:45;;;;;;;4.73;1.23;;;12.40;99.90;;;;;;6193618;23;20485;-91
2022/05/15 09:14:23;;;;;;;1.00;0.90;;;12.40;99.90;;;;;;6193118;23;20173;-91
2022/05/15 09:17:02;;;;;;;1.10;0.97;;;12.40;99.90;;;;;;6192279;23;20612;-91
2022/05/15 09:19:39;;;;;;;1.30;0.80;;;12.30;99.90;;;;;;6193709;23;20193;-91
2022/05/15 09:22:14;;;;;;;3.80;1.23;;;12.20;99.90;;;;;;6193355;23;20228;-91
2022/05/15 09:24:51;;;;;;;2.60;0.90;;;12.20;99.90;;;;;;6193601;23;20191;-91
2022/05/15 09:27:25;;;;;;;1.43;1.00;;;12.30;99.90;;;;;;6194404;23;20169;-91
2022/05/15 09:29:57;;;;;;;4.33;1.30;;;12.30;99.90;;;;;;6195020;23;20169;-91
2022/05/15 09:32:36;;;;;;;1.20;0.90;;;12.20;99.90;;;;;;6193368;23;20188;-91
2022/05/15 09:35:28;;;;;;;3.23;1.00;;;12.20;99.90;;;;;;6193146;23;20176;-91
2022/05/15 09:43:33;;;;;;;1.30;0.90;;;12.20;99.90;;;;;;6190933;23;20192;-90
2022/05/15 09:46:21;;;;;;;1.67;0.77;;;12.10;99.90;;;;;;6193248;23;20166;-90
2022/05/15 09:48:58;;;;;;;1.80;1.17;;;12.10;99.90;;;;;;6190709;23;20169;-90
2022/05/15 09:51:44;;;;;;;2.60;0.90;;;12.00;99.90;;;;;;6165383;23;20169;-90
2022/05/15 09:54:30;;;;;;;3.50;1.33;;;12.00;99.90;;;;;;6190458;23;20562;-90
2022/05/15 09:57:17;;;;;;;1.20;1.10;;;12.00;99.90;;;;;;6190652;23;20181;-90
2022/05/15 09:59:59;;;;;;;1.43;0.90;;;11.90;99.90;;;;;;6190863;23;20489;-90
2022/05/15 10:02:41;;;;;;;2.00;1.07;;;11.90;99.90;;;;;;6191220;23;20184;-90
2022/05/15 10:05:24;;;;;;;1.53;0.90;;;11.90;99.90;;;;;;6193697;23;20189;-90
2022/05/15 10:08:01;;;;;;;3.03;0.90;;;11.90;99.90;;;;;;6203150;23;20227;-90
2022/05/15 10:10:36;;;;;;;2.00;1.10;;;11.90;99.90;;;;;;6200549;23;20204;-90
2022/05/15 10:13:10;;;;;;;1.30;1.00;;;11.90;99.90;;;;;;6192477;23;20172;-90
2022/05/15 10:15:45;;;;;;;2.03;1.10;;;11.90;99.90;;;;;;6192137;23;20180;-90
2022/05/15 10:18:21;;;;;;;1.30;0.90;;;12.00;99.90;;;;;;6190390;23;20207;-90
2022/05/15 10:20:57;;;;;;;2.50;1.00;;;11.90;99.90;;;;;;6192822;23;20572;-91
2022/05/15 10:23:32;;;;;;;2.43;1.20;;;11.90;99.90;;;;;;6194329;23;20185;-91
2022/05/15 10:26:12;;;;;;;1.23;1.03;;;11.90;99.90;;;;;;6191336;23;20169;-90
2022/05/15 10:28:47;;;;;;;2.20;1.20;;;11.80;99.90;;;;;;6170475;23;20169;-91
2022/05/15 10:31:23;;;;;;;3.13;1.20;;;11.80;99.90;;;;;;6191455;23;20177;-90
2022/05/15 10:33:57;;;;;;;2.33;1.20;;;11.80;99.90;;;;;;6193679;23;20168;-91
2022/05/15 10:37:01;;;;;;;3.73;1.20;;;11.70;99.90;;;;;;6193987;23;20184;-91
2022/05/15 10:39:38;;;;;;;1.60;1.10;;;11.70;99.90;;;;;;6170165;23;20208;-90
2022/05/15 10:42:19;;;;;;;2.47;1.23;;;11.70;99.90;;;;;;6194425;23;20165;-90
2022/05/15 10:45:04;;;;;;;1.93;1.10;;;11.70;99.90;;;;;;6197057;23;20177;-91
2022/05/15 10:47:41;;;;;;;2.00;1.60;;;11.70;99.90;;;;;;6207541;23;20153;-90
2022/05/15 10:50:26;;;;;;;1.97;1.27;;;11.70;99.90;;;;;;6199920;23;20181;-90
2022/05/15 10:59:04;;;;;;;5.23;1.27;;;11.90;99.90;;;;;;6195089;23;20204;-91
2022/05/15 11:01:45;;;;;;;0.73;0.70;;;11.90;99.90;;;;;;6196440;23;20180;-90
2022/05/15 11:04:19;;;;;;;1.20;1.10;;;11.90;99.90;;;;;;6194205;23;20180;-90
2022/05/15 11:07:03;;;;;;;1.73;1.00;;;11.90;99.90;;;;;;6194276;23;20169;-90
2022/05/15 11:09:52;;;;;;;1.13;0.80;;;11.90;99.90;;;;;;6167894;23;20173;-91
2022/05/15 11:12:49;;;;;;;1.90;1.17;;;11.90;99.90;;;;;;6193740;23;20272;-89
2022/05/15 11:15:42;;;;;;;2.03;1.30;;;12.00;99.90;;;;;;6193712;23;20181;-90
2022/05/15 11:18:35;;;;;;;2.90;1.10;;;12.00;99.90;;;;;;6167088;23;20193;-90
2022/05/15 11:21:12;;;;;;;2.50;1.33;;;12.00;99.90;;;;;;6192264;23;20177;-90
2022/05/15 11:23:47;;;;;;;1.93;1.00;;;12.00;99.90;;;;;;6187951;23;20647;-90
2022/05/15 11:26:25;;;;;;;2.17;0.70;;;11.90;99.90;;;;;;6194616;23;20639;-89
2022/05/15 11:29:01;;;;;;;1.57;1.00;;;12.00;99.90;;;;;;6191285;23;20189;-89
2022/05/15 11:31:36;;;;;;;1.10;1.00;;;12.00;99.90;;;;;;6191249;23;20184;-90
2022/05/15 11:34:09;;;;;;;1.33;1.00;;;11.90;99.90;;;;;;6191201;23;20188;-90
2022/05/15 11:36:45;;;;;;;1.50;1.07;;;11.90;99.90;;;;;;6193707;23;20180;-90
2022/05/15 11:39:27;;;;;;;2.90;0.80;;;12.00;99.90;;;;;;6191060;23;20196;-90
2022/05/15 11:42:14;;;;;;;1.97;0.97;;;11.90;99.90;;;;;;6191486;23;20165;-90
2022/05/15 11:44:48;;;;;;;1.97;1.00;;;11.80;99.90;;;;;;6191038;23;20556;-90
2022/05/15 11:47:31;;;;;;;2.07;1.10;;;11.80;99.90;;;;;;6191218;23;20173;-89
2022/05/15 11:50:12;;;;;;;5.20;1.30;;;11.70;99.90;;;;;;6191316;23;20580;-90
2022/05/15 11:53:02;;;;;;;0.90;0.90;;;11.70;99.90;;;;;;6191244;23;20180;-89
2022/05/15 11:55:48;;;;;;;2.77;1.20;;;11.60;99.90;;;;;;6191265;23;20188;-89
2022/05/15 11:58:53;;;;;;;1.10;1.00;;;11.70;99.90;;;;;;6189851;23;20631;-89
2022/05/15 12:01:44;;;;;;;2.20;1.10;;;11.80;99.90;;;;;;6188826;23;20185;-89
2022/05/15 12:04:40;;;;;;;1.70;1.00;;;11.70;99.90;;;;;;6191497;23;20168;-90
2022/05/15 12:07:31;;;;;;;1.50;1.27;;;11.60;99.90;;;;;;6192767;23;20177;-90
2022/05/15 12:10:02;;;;;;;1.17;1.07;;;11.60;99.90;;;;;;6198141;23;20169;-90
2022/05/15 12:12:52;;;;;;;1.67;1.10;;;11.50;99.90;;;;;;6191226;23;20173;-90
2022/05/15 12:15:40;;;;;;;3.97;1.07;;;11.40;99.90;;;;;;6192274;23;20184;-90
2022/05/15 12:18:30;;;;;;;1.47;1.10;;;11.50;99.90;;;;;;6191790;23;20227;-90
2022/05/15 12:21:02;;;;;;;6.47;1.30;;;11.50;99.90;;;;;;6168303;23;20734;-90
2022/05/15 12:23:36;;;;;;;1.87;1.20;;;11.50;99.90;;;;;;6204526;23;20215;-90
2022/05/15 12:26:19;;;;;;;1.23;1.13;;;11.50;99.90;;;;;;6181717;23;20189;-90
2022/05/15 12:28:57;;;;;;;2.20;1.20;;;11.50;99.90;;;;;;6208499;23;20164;-90
2022/05/15 12:31:38;;;;;;;1.60;1.20;;;11.50;99.90;;;;;;6199678;23;20627;-91
2022/05/15 12:34:25;;;;;;;1.87;1.20;;;11.50;99.90;;;;;;6197737;23;20177;-91
2022/05/15 12:36:59;;;;;;;1.73;1.20;;;11.60;99.90;;;;;;6197503;23;20192;-90
2022/05/15 12:39:35;;;;;;;2.50;1.40;;;11.50;99.90;;;;;;6193859;23;20208;-91
2022/05/15 12:42:14;;;;;;;2.67;1.50;;;11.50;99.90;;;;;;6194156;23;20176;-91
2022/05/15 12:44:45;;;;;;;2.40;1.37;;;11.40;99.90;;;;;;6192527;23;20238;-90
2022/05/15 12:47:25;;;;;;;0.80;0.80;;;11.40;99.90;;;;;;6191590;23;20177;-91
2022/05/15 12:50:02;;;;;;;3.10;1.23;;;11.40;99.90;;;;;;6191124;23;20184;-91
2022/05/15 12:52:35;;;;;;;1.57;1.20;;;11.50;99.90;;;;;;6190979;23;20173;-91
2022/05/15 12:55:08;;;;;;;1.50;1.40;;;11.50;99.90;;;;;;6190725;23;20177;-91
2022/05/15 12:57:47;;;;;;;3.33;1.30;;;11.50;99.90;;;;;;6189761;23;20181;-90
2022/05/15 13:00:21;;;;;;;1.83;1.20;;;11.50;99.90;;;;;;6191011;23;20204;-91
2022/05/15 13:03:00;;;;;;;1.70;1.20;;;11.50;99.90;;;;;;6191409;23;20181;-90
2022/05/15 13:05:35;;;;;;;3.40;1.20;;;11.50;99.90;;;;;;6197736;23;20181;-90
2022/05/15 13:08:10;;;;;;;1.63;1.20;;;11.50;99.90;;;;;;6207917;23;20187;-91
2022/05/15 13:10:52;;;;;;;1.47;1.00;;;11.50;99.90;;;;;;6208224;23;20270;-91
2022/05/15 13:13:27;;;;;;;2.03;1.27;;;11.50;99.90;;;;;;6192232;23;20232;-90
2022/05/15 13:16:00;;;;;;;1.20;1.10;;;11.60;99.90;;;;;;6191538;23;20518;-90
2022/05/15 13:18:37;;;;;;;4.00;1.20;;;11.60;99.90;;;;;;6189940;23;20177;-91
2022/05/15 13:21:10;;;;;;;2.03;1.17;;;11.70;99.90;;;;;;6190439;23;20592;-91
2022/05/15 13:23:48;;;;;;;2.83;1.10;;;11.80;99.90;;;;;;6190540;23;20205;-90
2022/05/15 13:26:25;;;;;;;1.63;1.30;;;11.80;99.90;;;;;;6190006;23;20177;-91
2022/05/15 13:29:02;;;;;;;1.53;1.00;;;11.90;99.90;;;;;;6163123;23;20176;-91
2022/05/15 13:31:36;;;;;;;3.47;1.20;;;11.90;99.90;;;;;;6190372;23;20172;-89
2022/05/15 13:34:13;;;;;;;2.13;1.20;;;11.90;99.90;;;;;;6190022;23;20186;-89
2022/05/15 13:36:53;;;;;;;2.13;0.90;;;11.90;99.90;;;;;;6165506;23;20177;-90
2022/05/15 13:45:11;;;;;;;2.10;0.90;;;11.90;99.90;;;;;;6190269;23;20230;-90
2022/05/15 13:48:03;;;;;;;1.67;0.90;;;11.80;99.90;;;;;;6189994;23;20216;-90
2022/05/15 13:50:41;;;;;;;2.27;1.00;;;11.90;99.90;;;;;;6194113;23;20205;-90
2022/05/15 13:53:27;;;;;;;1.30;1.00;;;11.90;99.90;;;;;;6200030;23;20173;-90
2022/05/15 13:56:02;;;;;;;1.07;0.90;;;11.90;99.90;;;;;;6182678;23;20169;-89
2022/05/15 13:58:46;;;;;;;3.57;1.00;;;12.00;99.90;;;;;;6204310;23;20176;-90
2022/05/15 14:01:20;;;;;;;2.07;0.90;;;12.10;99.90;;;;;;6198908;23;20227;-89
2022/05/15 14:03:53;;;;;;;2.10;1.00;;;12.00;99.90;;;;;;6192336;23;20176;-89
2022/05/15 14:06:29;;;;;;;1.20;0.90;;;12.10;99.90;;;;;;6166478;23;20204;-89
2022/05/15 14:09:05;;;;;;;1.23;0.90;;;12.10;99.90;;;;;;6188914;23;20173;-89
2022/05/15 14:11:57;;;;;;;4.73;1.10;;;12.10;99.90;;;;;;6188762;23;20635;-89
2022/05/15 14:14:51;;;;;;;1.77;1.67;;;12.10;99.90;;;;;;6190089;23;20177;-89
2022/05/15 14:17:25;;;;;;;1.43;0.90;;;12.20;99.90;;;;;;6184175;23;20236;-90
2022/05/15 14:20:01;;;;;;;1.63;1.30;;;12.20;99.90;;;;;;6190538;23;20177;-90
2022/05/15 14:22:41;;;;;;;3.03;1.20;;;12.20;99.90;;;;;;6190649;23;20181;-90
2022/05/15 14:25:13;;;;;;;3.37;1.13;;;12.30;99.90;;;;;;6189590;23;20169;-90
2022/05/15 14:27:46;;;;;;;3.33;1.00;;;12.20;99.90;;;;;;6189404;23;20176;-90
2022/05/15 14:30:17;;;;;;;3.50;1.00;;;12.30;99.90;;;;;;6191416;23;20196;-90
2022/05/15 14:32:53;;;;;;;2.30;1.00;;;12.30;99.90;;;;;;6193298;23;20530;-90
2022/05/15 14:35:28;;;;;;;2.67;1.33;;;12.30;99.90;;;;;;6191773;23;20200;-90
2022/05/15 14:38:02;;;;;;;3.10;1.07;;;12.30;99.90;;;;;;6190711;23;20223;-90
2022/05/15 14:40:42;;;;;;;4.80;1.30;;;12.30;99.90;;;;;;6191019;23;20216;-91
2022/05/15 14:43:14;;;;;;;2.43;1.03;;;12.30;99.90;;;;;;6193565;23;20188;-90
2022/05/15 14:45:48;;;;;;;4.30;1.30;;;12.30;99.90;;;;;;6193394;23;20169;-91
2022/05/15 14:48:22;;;;;;;3.57;1.20;;;12.30;99.90;;;;;;6191494;23;20168;-91
2022/05/15 14:50:56;;;;;;;1.50;1.10;;;12.40;99.90;;;;;;6191165;23;20181;-91
2022/05/15 14:53:32;;;;;;;1.23;0.97;;;12.50;99.90;;;;;;6192085;23;20181;-90
2022/05/15 14:56:11;;;;;;;3.10;1.07;;;12.40;99.90;;;;;;6193002;23;20185;-89